createdAt,value
2023-01-02T00:01:43.524Z,15.34
2023-01-02T00:04:10.675Z,15.30
2023-01-02T00:06:43.762Z,15.26
2023-01-02T00:09:16.728Z,15.19
2023-01-02T00:11:50.434Z,15.14
2023-01-02T00:14:20.377Z,15.10
2023-01-02T00:16:47.364Z,15.15
2023-01-02T00:19:14.726Z,15.16
2023-01-02T00:21:42.867Z,15.11
2023-01-02T00:24:10.836Z,15.06
2023-01-02T00:26:38.055Z,15.05
2023-01-02T00:29:11.272Z,15.02
2023-01-02T00:31:40.742Z,15.07
2023-01-02T00:34:08.121Z,15.13
2023-01-02T00:36:35.183Z,15.20
2023-01-02T00:39:02.070Z,15.22
2023-01-02T00:41:31.892Z,15.25
2023-01-02T00:43:58.999Z,15.26
2023-01-02T00:46:29.306Z,15.23
2023-01-02T00:48:56.526Z,15.22
2023-01-02T00:51:27.112Z,15.31
2023-01-02T00:53:57.459Z,15.36
2023-01-02T00:56:25.065Z,15.37
2023-01-02T00:58:52.107Z,15.44
2023-01-02T01:01:19.169Z,15.52
2023-01-02T01:03:53.900Z,15.56
2023-01-02T01:06:21.602Z,15.57
2023-01-02T01:08:48.724Z,15.62
2023-01-02T01:11:16.481Z,15.62
2023-01-02T01:13:43.982Z,15.63
2023-01-02T01:16:12.366Z,15.60
2023-01-02T01:18:39.861Z,15.59
2023-01-02T01:21:12.856Z,15.51
2023-01-02T01:23:49.612Z,15.53
2023-01-02T01:26:19.458Z,15.51
2023-01-02T01:29:00.589Z,15.51
2023-01-02T01:31:39.285Z,15.51
2023-01-02T01:34:16.034Z,15.57
2023-01-02T01:36:43.208Z,15.55
2023-01-02T01:39:10.023Z,15.53
2023-01-02T01:41:37.115Z,15.54
2023-01-02T01:44:29.112Z,15.56
2023-01-02T01:46:56.608Z,15.54
2023-01-02T01:49:27.722Z,15.51
2023-01-02T01:52:09.824Z,15.51
2023-01-02T01:54:43.168Z,15.49
2023-01-02T01:57:19.155Z,15.47
2023-01-02T01:59:49.111Z,15.49
2023-01-02T02:02:20.031Z,15.49
2023-01-02T02:04:50.588Z,15.51
2023-01-02T02:07:18.404Z,15.52
2023-01-02T02:09:51.806Z,15.55
2023-01-02T02:12:27.723Z,15.55
2023-01-02T02:15:02.087Z,15.49
2023-01-02T02:17:59.966Z,15.50
2023-01-02T02:20:47.245Z,15.54
2023-01-02T02:23:31.346Z,15.57
2023-01-02T02:29:23.719Z,15.66
2023-01-02T02:31:56.108Z,15.69
2023-01-02T02:34:43.305Z,15.64
2023-01-02T02:37:22.280Z,15.62
2023-01-02T02:40:15.680Z,15.56
2023-01-02T02:42:53.060Z,15.54
2023-01-02T02:45:19.993Z,15.57
2023-01-02T02:48:22.586Z,15.61
2023-01-02T02:51:04.906Z,15.57
2023-01-02T02:53:39.031Z,15.58
2023-01-02T02:56:08.240Z,15.53
2023-01-02T02:58:36.296Z,15.57
2023-01-02T03:01:04.865Z,15.54
2023-01-02T03:03:34.981Z,15.43
2023-01-02T03:06:05.706Z,15.40
2023-01-02T03:08:51.020Z,15.36
2023-01-02T03:11:18.693Z,15.29
2023-01-02T03:14:07.348Z,15.28
2023-01-02T03:16:41.953Z,15.30
2023-01-02T03:19:24.013Z,15.25
2023-01-02T03:22:03.097Z,15.31
2023-01-02T03:24:31.827Z,15.34
2023-01-02T03:27:02.852Z,15.38
2023-01-02T03:29:41.099Z,15.42
2023-01-02T03:32:13.083Z,15.40
2023-01-02T03:34:41.854Z,15.41
2023-01-02T03:37:16.210Z,15.41
2023-01-02T03:39:46.379Z,15.40
2023-01-02T03:42:33.735Z,15.44
2023-01-02T03:45:09.995Z,15.41
2023-01-02T03:47:52.584Z,15.41
2023-01-02T03:50:22.510Z,15.39
2023-01-02T03:52:50.666Z,15.38
2023-01-02T03:55:23.417Z,15.36
2023-01-02T03:58:03.142Z,15.37
2023-01-02T04:00:37.650Z,15.38
2023-01-02T04:03:12.653Z,15.38
2023-01-02T04:06:21.069Z,15.34
2023-01-02T04:08:52.472Z,15.31
2023-01-02T04:11:20.802Z,15.29
2023-01-02T04:13:50.952Z,15.27
2023-01-02T04:16:23.452Z,15.28
2023-01-02T04:19:03.920Z,15.27
2023-01-02T04:21:36.700Z,15.20
2023-01-02T04:24:06.778Z,15.15
2023-01-02T04:26:36.887Z,15.11
2023-01-02T04:29:11.129Z,15.06
2023-01-02T04:31:47.600Z,15.06
2023-01-02T04:34:15.881Z,15.03
2023-01-02T04:36:43.562Z,14.95
2023-01-02T04:39:10.663Z,14.88
2023-01-02T04:41:38.250Z,14.87
2023-01-02T04:44:05.282Z,14.86
2023-01-02T04:46:32.354Z,14.81
2023-01-02T04:49:00.219Z,14.80
2023-01-02T04:51:27.165Z,14.80
2023-01-02T04:53:54.425Z,14.82
2023-01-02T04:56:24.925Z,14.82
2023-01-02T04:58:52.206Z,14.78
2023-01-02T05:01:21.045Z,14.69
2023-01-02T05:03:49.167Z,14.59
2023-01-02T05:06:16.757Z,14.55
2023-01-02T05:08:43.956Z,14.51
2023-01-02T05:11:15.602Z,14.46
2023-01-02T05:13:42.849Z,14.46
2023-01-02T05:16:12.867Z,14.51
2023-01-02T05:18:42.777Z,14.62
2023-01-02T05:21:30.323Z,14.66
2023-01-02T05:23:58.382Z,14.66
2023-01-02T05:26:25.622Z,14.61
2023-01-02T05:29:00.828Z,14.60
2023-01-02T05:31:28.192Z,14.61
2023-01-02T05:34:00.282Z,14.60
2023-01-02T05:36:27.834Z,14.60
2023-01-02T05:38:55.257Z,14.60
2023-01-02T05:41:25.344Z,14.64
2023-01-02T05:44:00.667Z,14.69
2023-01-02T05:46:27.568Z,14.69
2023-01-02T05:49:03.799Z,14.68
2023-01-02T05:51:33.314Z,14.68
2023-01-02T05:54:00.601Z,14.70
2023-01-02T05:56:28.644Z,14.69
2023-01-02T05:58:55.553Z,14.68
2023-01-02T06:01:30.518Z,14.71
2023-01-02T06:03:58.656Z,14.71
2023-01-02T06:06:27.411Z,14.70
2023-01-02T06:08:55.999Z,14.69
2023-01-02T06:11:26.468Z,14.71
2023-01-02T06:13:59.640Z,14.69
2023-01-02T06:16:27.355Z,14.71
2023-01-02T06:19:04.499Z,14.70
2023-01-02T06:21:40.305Z,14.70
2023-01-02T06:24:13.621Z,14.68
2023-01-02T06:26:40.918Z,14.69
2023-01-02T06:29:16.888Z,14.62
2023-01-02T06:31:52.638Z,14.68
2023-01-02T06:34:19.649Z,14.72
2023-01-02T06:37:09.638Z,14.75
2023-01-02T06:39:46.013Z,14.76
2023-01-02T06:42:14.282Z,14.73
2023-01-02T06:44:45.479Z,14.69
2023-01-02T06:47:12.669Z,14.67
2023-01-02T06:49:39.789Z,14.68
2023-01-02T06:52:13.574Z,14.69
2023-01-02T06:54:40.426Z,14.71
2023-01-02T06:57:07.570Z,14.73
2023-01-02T06:59:35.527Z,14.74
2023-01-02T07:02:02.510Z,14.76
2023-01-02T07:04:30.388Z,14.79
2023-01-02T07:06:57.635Z,14.79
2023-01-02T07:09:24.632Z,14.82
2023-01-02T07:11:51.590Z,14.81
2023-01-02T07:14:21.311Z,14.80
2023-01-02T07:16:48.143Z,14.78
2023-01-02T07:19:15.001Z,14.77
2023-01-02T07:21:42.103Z,14.78
2023-01-02T07:24:13.336Z,14.84
2023-01-02T07:26:40.271Z,14.91
2023-01-02T07:29:07.300Z,14.98
2023-01-02T07:31:34.549Z,15.04
2023-01-02T07:34:01.817Z,15.02
2023-01-02T07:36:29.829Z,14.95
2023-01-02T07:38:57.558Z,14.96
2023-01-02T07:41:25.313Z,14.99
2023-01-02T07:43:53.910Z,15.06
2023-01-02T07:46:22.981Z,15.02
2023-01-02T07:48:50.627Z,15.06
2023-01-02T07:51:22.860Z,15.05
2023-01-02T07:53:55.339Z,15.05
2023-01-02T07:56:22.357Z,15.06
2023-01-02T07:58:52.098Z,15.07
2023-01-02T08:01:22.258Z,15.14
2023-01-02T08:03:49.212Z,15.22
2023-01-02T08:06:17.041Z,15.30
2023-01-02T08:08:49.585Z,15.36
2023-01-02T08:11:18.993Z,15.38
2023-01-02T08:13:47.142Z,15.38
2023-01-02T08:16:21.195Z,15.44
2023-01-02T08:18:51.591Z,15.50
2023-01-02T08:21:28.606Z,15.57
2023-01-02T08:24:00.823Z,15.59
2023-01-02T08:26:28.195Z,15.61
2023-01-02T08:28:55.381Z,15.61
2023-01-02T08:31:36.594Z,15.66
2023-01-02T08:34:19.461Z,15.71
2023-01-02T08:36:57.186Z,15.70
2023-01-02T08:39:33.743Z,15.70
2023-01-02T08:42:03.148Z,15.77
2023-01-02T08:44:36.057Z,15.81
2023-01-02T08:50:02.132Z,15.90
2023-01-02T08:52:31.744Z,15.95
2023-01-02T08:55:05.037Z,15.93
2023-01-02T08:57:32.522Z,15.94
2023-01-02T08:59:59.636Z,15.94
2023-01-02T09:02:29.959Z,15.97
2023-01-02T09:04:59.480Z,15.99
2023-01-02T09:07:45.830Z,15.98
2023-01-02T09:10:17.034Z,15.99
2023-01-02T09:12:49.831Z,15.99
2023-01-02T09:15:17.850Z,16.00
2023-01-02T09:17:48.058Z,16.00
2023-01-02T09:20:29.194Z,16.05
2023-01-02T09:23:08.720Z,16.11
2023-01-02T09:25:35.580Z,16.13
2023-01-02T09:28:02.551Z,16.13
2023-01-02T09:30:38.518Z,16.17
2023-01-02T09:33:05.743Z,16.28
2023-01-02T09:35:34.189Z,16.41
2023-01-02T09:38:04.096Z,16.53
2023-01-02T09:40:35.391Z,16.61
2023-01-02T09:43:02.604Z,16.69
2023-01-02T09:45:30.242Z,16.84
2023-01-02T09:48:01.221Z,16.96
2023-01-02T09:50:29.791Z,17.02
2023-01-02T09:53:09.737Z,17.01
2023-01-02T09:55:55.421Z,17.08
2023-01-02T09:58:36.424Z,17.28
2023-01-02T10:01:06.123Z,17.18
2023-01-02T10:03:45.561Z,17.01
2023-01-02T10:06:16.630Z,16.94
2023-01-02T10:09:10.526Z,16.98
2023-01-02T10:11:43.958Z,17.26
2023-01-02T10:14:20.230Z,17.43
2023-01-02T10:16:50.577Z,17.56
2023-01-02T10:19:21.539Z,17.64
2023-01-02T10:21:52.723Z,17.73
2023-01-02T10:24:39.171Z,17.89
2023-01-02T10:27:14.769Z,18.08
2023-01-02T10:30:04.810Z,18.11
2023-01-02T10:32:32.783Z,18.17
2023-01-02T10:35:08.782Z,18.28
2023-01-02T10:37:36.530Z,18.46
2023-01-02T10:40:04.734Z,18.66
2023-01-02T10:42:35.668Z,18.77
2023-01-02T10:45:11.218Z,18.74
2023-01-02T10:47:40.105Z,18.60
2023-01-02T10:50:09.444Z,18.48
2023-01-02T10:52:46.108Z,18.33
2023-01-02T10:55:15.903Z,18.18
2023-01-02T10:57:44.477Z,18.13
2023-01-02T11:00:32.495Z,18.20
2023-01-02T11:03:00.658Z,18.26
2023-01-02T11:05:32.615Z,18.25
2023-01-02T11:08:05.547Z,18.20
2023-01-02T11:10:37.786Z,18.03
2023-01-02T11:13:15.204Z,17.92
2023-01-02T11:16:02.518Z,17.82
2023-01-02T11:18:33.504Z,17.69
2023-01-02T11:21:05.245Z,17.58
2023-01-02T11:23:42.945Z,17.45
2023-01-02T11:26:19.812Z,17.39
2023-01-02T11:28:49.707Z,17.36
2023-01-02T11:31:20.378Z,17.35
2023-01-02T11:33:47.843Z,17.25
2023-01-02T11:36:14.732Z,17.16
2023-01-02T11:38:50.555Z,17.13
2023-01-02T11:42:00.454Z,17.08
2023-01-02T11:44:38.617Z,17.03
2023-01-02T11:47:10.075Z,17.06
2023-01-02T11:49:40.319Z,17.06
2023-01-02T11:52:30.960Z,17.07
2023-01-02T11:55:02.137Z,17.12
2023-01-02T11:57:48.383Z,17.13
2023-01-02T12:00:17.310Z,17.09
2023-01-02T12:02:57.208Z,17.08
2023-01-02T12:05:38.886Z,17.11
2023-01-02T12:08:13.835Z,17.09
2023-01-02T12:10:56.280Z,17.08
2023-01-02T12:13:42.384Z,17.00
2023-01-02T12:16:17.843Z,16.93
2023-01-02T12:18:58.955Z,16.87
2023-01-02T12:21:32.237Z,16.80
2023-01-02T12:24:14.116Z,16.79
2023-01-02T12:26:54.228Z,16.74
2023-01-02T12:29:48.296Z,16.72
2023-01-02T12:32:37.057Z,16.62
2023-01-02T12:35:13.613Z,16.54
2023-01-02T12:37:57.281Z,16.40
2023-01-02T12:40:44.037Z,16.30
2023-01-02T12:43:22.792Z,16.15
2023-01-02T12:45:50.789Z,16.11
2023-01-02T12:48:33.570Z,16.11
2023-01-02T12:51:47.350Z,16.14
2023-01-02T12:54:31.683Z,16.14
2023-01-02T12:56:59.646Z,16.13
2023-01-02T12:59:39.786Z,16.19
2023-01-02T13:02:30.087Z,16.20
2023-01-02T13:05:16.319Z,16.20
2023-01-02T13:07:55.814Z,16.11
2023-01-02T13:10:28.489Z,16.03
2023-01-02T13:12:58.351Z,16.00
2023-01-02T13:15:26.409Z,15.97
2023-01-02T13:17:53.954Z,16.01
2023-01-02T13:20:42.827Z,16.01
2023-01-02T13:23:12.134Z,16.14
2023-01-02T13:25:46.394Z,16.26
2023-01-02T13:28:14.323Z,16.33
2023-01-02T13:30:41.671Z,16.37
2023-01-02T13:33:21.451Z,16.32
2023-01-02T13:35:48.599Z,16.23
2023-01-02T13:38:17.399Z,16.14
2023-01-02T13:40:54.526Z,16.14
2023-01-02T13:43:26.137Z,16.14
2023-01-02T13:45:55.444Z,16.09
2023-01-02T13:48:27.069Z,16.11
2023-01-02T13:51:01.613Z,16.03
2023-01-02T13:53:40.472Z,16.06
2023-01-02T13:56:10.010Z,16.04
2023-01-02T13:58:44.659Z,15.96
2023-01-02T14:01:23.615Z,15.94
2023-01-02T14:04:09.227Z,15.94
2023-01-02T14:06:40.031Z,15.98
2023-01-02T14:09:18.312Z,16.00
2023-01-02T14:12:02.296Z,15.97
2023-01-02T14:14:36.482Z,15.95
2023-01-02T14:17:14.247Z,15.98
2023-01-02T14:19:41.167Z,15.98
2023-01-02T14:22:13.484Z,15.97
2023-01-02T14:24:51.534Z,15.92
2023-01-02T14:27:24.145Z,15.98
2023-01-02T14:29:53.602Z,16.00
2023-01-02T14:32:30.050Z,16.02
2023-01-02T14:34:58.641Z,16.07
2023-01-02T14:37:44.112Z,16.08
2023-01-02T14:40:19.687Z,16.00
2023-01-02T14:43:08.522Z,15.97
2023-01-02T14:45:41.755Z,15.97
2023-01-02T14:48:10.914Z,15.99
2023-01-02T14:50:43.762Z,15.94
2023-01-02T14:53:17.647Z,15.92
2023-01-02T14:55:45.779Z,15.84
2023-01-02T14:58:31.601Z,15.83
2023-01-02T15:01:04.121Z,15.82
2023-01-02T15:03:43.190Z,15.84
2023-01-02T15:06:21.603Z,15.89
2023-01-02T15:08:54.621Z,15.88
2023-01-02T15:11:43.985Z,15.81
2023-01-02T15:14:20.507Z,15.79
2023-01-02T15:16:59.361Z,15.80
2023-01-02T15:19:28.660Z,15.78
2023-01-02T15:21:55.866Z,15.83
2023-01-02T15:24:30.713Z,15.87
2023-01-02T15:27:14.829Z,15.89
2023-01-02T15:29:48.904Z,15.91
2023-01-02T15:32:24.045Z,15.93
2023-01-02T15:35:10.442Z,15.93
2023-01-02T15:37:47.212Z,15.94
2023-01-02T15:40:20.768Z,15.90
2023-01-02T15:43:06.830Z,15.88
2023-01-02T15:45:47.018Z,15.90
2023-01-02T15:48:17.530Z,15.79
2023-01-02T15:50:45.365Z,15.75
2023-01-02T15:53:23.682Z,15.69
2023-01-02T15:55:50.759Z,15.71
2023-01-02T15:58:18.493Z,15.70
2023-01-02T16:00:46.372Z,15.50
2023-01-02T16:04:03.103Z,15.33
2023-01-02T16:06:23.365Z,15.20
2023-01-02T16:08:52.266Z,15.11
2023-01-02T16:11:19.933Z,15.00
2023-01-02T16:14:09.960Z,14.96
2023-01-02T16:16:43.175Z,14.89
2023-01-02T16:19:14.130Z,14.89
2023-01-02T16:21:46.676Z,14.80
2023-01-02T16:24:19.700Z,14.73
2023-01-02T16:26:50.721Z,14.71
2023-01-02T16:29:19.815Z,14.70
2023-01-02T16:31:59.169Z,14.68
2023-01-02T16:34:38.543Z,14.61
2023-01-02T16:37:10.181Z,14.52
2023-01-02T16:39:44.082Z,14.52
2023-01-02T16:42:29.735Z,14.44
2023-01-02T16:45:02.629Z,14.43
2023-01-02T16:47:42.498Z,14.43
2023-01-02T16:50:17.957Z,14.44
2023-01-02T16:53:04.560Z,14.48
2023-01-02T16:55:31.999Z,14.49
2023-01-02T16:58:02.094Z,14.50
2023-01-02T17:00:31.824Z,14.52
2023-01-02T17:02:58.959Z,14.55
2023-01-02T17:05:30.634Z,14.51
2023-01-02T17:07:57.672Z,14.48
2023-01-02T17:10:25.329Z,14.35
2023-01-02T17:13:01.220Z,14.24
2023-01-02T17:15:28.179Z,14.22
2023-01-02T17:17:58.327Z,14.14
2023-01-02T17:20:30.688Z,13.99
2023-01-02T17:22:57.877Z,13.99
2023-01-02T17:25:29.078Z,13.97
2023-01-02T17:27:59.425Z,13.96
2023-01-02T17:30:26.552Z,13.99
2023-01-02T17:33:04.165Z,13.95
2023-01-02T17:35:35.368Z,13.96
2023-01-02T17:38:12.427Z,13.93
2023-01-02T17:40:40.163Z,13.91
2023-01-02T17:43:07.221Z,13.94
2023-01-02T17:45:34.058Z,13.91
2023-01-02T17:48:10.567Z,13.96
2023-01-02T17:50:38.139Z,14.01
2023-01-02T17:53:10.122Z,14.06
2023-01-02T17:55:37.106Z,14.06
2023-01-02T17:58:07.406Z,14.02
2023-01-02T18:00:34.379Z,14.02
2023-01-02T18:03:04.354Z,14.01
2023-01-02T18:05:34.882Z,14.00
2023-01-02T18:08:01.858Z,14.07
2023-01-02T18:10:32.901Z,14.10
2023-01-02T18:13:00.108Z,14.09
2023-01-02T18:15:32.476Z,14.10
2023-01-02T18:18:12.221Z,14.11
2023-01-02T18:20:40.517Z,14.15
2023-01-02T18:23:29.887Z,14.17
2023-01-02T18:26:05.634Z,14.21
2023-01-02T18:28:33.149Z,14.21
2023-01-02T18:31:12.378Z,14.13
2023-01-02T18:33:43.079Z,14.09
2023-01-02T18:36:26.534Z,14.12
2023-01-02T18:39:06.781Z,14.13
2023-01-02T18:41:36.445Z,14.04
2023-01-02T18:44:12.813Z,13.92
2023-01-02T18:47:02.014Z,13.86
2023-01-02T18:49:46.149Z,13.76
2023-01-02T18:52:22.673Z,13.72
2023-01-02T18:54:52.299Z,13.61
2023-01-02T18:57:21.847Z,13.47
2023-01-02T18:59:50.059Z,13.37
2023-01-02T19:02:31.207Z,13.37
2023-01-02T19:05:06.699Z,13.30
2023-01-02T19:07:39.648Z,13.27
2023-01-02T19:10:22.665Z,13.26
2023-01-02T19:13:09.431Z,13.20
2023-01-02T19:15:37.795Z,13.08
2023-01-02T19:18:17.177Z,13.06
2023-01-02T19:20:45.673Z,13.05
2023-01-02T19:23:24.916Z,12.97
2023-01-02T19:26:01.183Z,12.84
2023-01-02T19:28:29.329Z,12.86
2023-01-02T19:30:56.996Z,12.94
2023-01-02T19:33:42.475Z,13.01
2023-01-02T19:36:22.601Z,13.13
2023-01-02T19:38:51.391Z,13.25
2023-01-02T19:41:37.961Z,13.28
2023-01-02T19:44:06.020Z,13.28
2023-01-02T19:46:32.863Z,13.32
2023-01-02T19:49:00.162Z,13.31
2023-01-02T19:51:31.989Z,13.31
2023-01-02T19:54:04.067Z,13.26
2023-01-02T19:56:31.798Z,13.17
2023-01-02T19:58:58.731Z,13.19
2023-01-02T20:01:25.863Z,13.06
2023-01-02T20:03:55.723Z,12.96
2023-01-02T20:06:22.324Z,12.93
2023-01-02T20:08:49.291Z,12.96
2023-01-02T20:11:34.605Z,13.04
2023-01-02T20:14:01.127Z,13.08
2023-01-02T20:16:29.761Z,12.95
2023-01-02T20:18:56.575Z,12.92
2023-01-02T20:21:25.459Z,12.86
2023-01-02T20:23:56.349Z,12.94
2023-01-02T20:26:23.410Z,12.98
2023-01-02T20:28:49.982Z,13.01
2023-01-02T20:31:17.279Z,13.06
2023-01-02T20:33:43.858Z,13.07
2023-01-02T20:36:13.767Z,13.00
2023-01-02T20:38:40.674Z,12.95
2023-01-02T20:41:07.255Z,12.90
2023-01-02T20:43:33.898Z,12.85
2023-01-02T20:46:00.417Z,12.92
2023-01-02T20:48:27.228Z,13.03
2023-01-02T20:50:54.066Z,13.07
2023-01-02T20:53:20.593Z,13.16
2023-01-02T20:55:47.141Z,13.23
2023-01-02T20:58:13.906Z,13.22
2023-01-02T21:00:40.472Z,13.09
2023-01-02T21:03:07.137Z,12.99
2023-01-02T21:05:33.921Z,12.96
2023-01-02T21:08:00.500Z,12.99
2023-01-02T21:10:27.064Z,12.98
2023-01-02T21:13:10.486Z,13.02
2023-01-02T21:15:45.866Z,13.18
2023-01-02T21:18:14.278Z,13.19
2023-01-02T21:20:46.022Z,13.17
2023-01-02T21:23:13.198Z,12.99
2023-01-02T21:25:39.691Z,13.00
2023-01-02T21:28:06.788Z,13.01
2023-01-02T21:30:34.101Z,12.98
2023-01-02T21:33:00.978Z,12.96
2023-01-02T21:35:27.511Z,12.82
2023-01-02T21:37:54.176Z,12.89
2023-01-02T21:40:20.945Z,13.02
2023-01-02T21:42:47.967Z,13.03
2023-01-02T21:45:14.619Z,13.02
2023-01-02T21:47:41.255Z,13.01
2023-01-02T21:50:08.202Z,13.06
2023-01-02T21:52:34.935Z,13.13
2023-01-02T21:55:01.424Z,13.19
2023-01-02T21:58:02.752Z,13.20
2023-01-02T22:00:15.860Z,13.15
2023-01-02T22:02:42.874Z,13.16
2023-01-02T22:05:10.542Z,13.07
2023-01-02T22:07:42.207Z,13.02
2023-01-02T22:10:11.654Z,12.96
2023-01-02T22:12:39.524Z,12.90
2023-01-02T22:15:06.912Z,12.87
2023-01-02T22:17:33.470Z,12.69
2023-01-02T22:20:01.282Z,12.69
2023-01-02T22:22:27.860Z,12.65
2023-01-02T22:24:54.479Z,12.61
2023-01-02T22:27:21.937Z,12.54
2023-01-02T22:32:37.258Z,12.42
2023-01-02T22:35:04.768Z,12.42
2023-01-02T22:37:31.401Z,12.46
2023-01-02T22:39:58.258Z,12.53
2023-01-02T22:43:05.925Z,12.57
2023-01-02T22:45:41.012Z,12.62
2023-01-02T22:48:13.616Z,12.51
2023-01-02T22:50:43.157Z,12.44
2023-01-02T22:53:15.968Z,12.38
2023-01-02T22:55:42.530Z,12.38
2023-01-02T22:58:09.163Z,12.41
2023-01-02T23:00:35.807Z,12.42
2023-01-02T23:03:02.533Z,12.43
2023-01-02T23:05:29.195Z,12.50
2023-01-02T23:07:55.896Z,12.57
2023-01-02T23:10:22.482Z,12.63
2023-01-02T23:12:49.104Z,12.68
2023-01-02T23:15:15.761Z,12.73
2023-01-02T23:18:01.022Z,12.72
2023-01-02T23:20:27.597Z,12.67
2023-01-02T23:22:54.240Z,12.69
2023-01-02T23:25:20.925Z,12.72
2023-01-02T23:27:47.694Z,12.81
2023-01-02T23:30:14.491Z,12.86
2023-01-02T23:32:41.182Z,12.82
2023-01-02T23:35:08.120Z,12.68
2023-01-02T23:37:34.661Z,12.53
2023-01-02T23:40:01.243Z,12.39
2023-01-02T23:42:27.874Z,12.32
2023-01-02T23:44:54.423Z,12.21
2023-01-02T23:47:21.069Z,12.10
2023-01-02T23:49:47.595Z,11.98
2023-01-02T23:52:14.263Z,11.86
2023-01-02T23:54:40.828Z,11.81
2023-01-02T23:57:07.403Z,11.75
2023-01-02T23:59:34.064Z,11.74
